createdAt,value
2022-12-04T00:00:51.477Z,14.35
2022-12-04T00:03:18.314Z,14.48
2022-12-04T00:05:45.067Z,14.52
2022-12-04T00:08:11.882Z,14.43
2022-12-04T00:10:43.515Z,13.75
2022-12-04T00:13:10.415Z,12.52
2022-12-04T00:15:41.901Z,13.30
2022-12-04T00:18:08.642Z,13.55
2022-12-04T00:20:36.221Z,13.52
2022-12-04T00:23:02.967Z,12.80
2022-12-04T00:25:30.789Z,12.95
2022-12-04T00:27:57.510Z,12.38
2022-12-04T00:30:24.301Z,12.30
2022-12-04T00:32:51.046Z,12.73
2022-12-04T00:35:17.824Z,12.70
2022-12-04T00:37:44.519Z,13.70
2022-12-04T00:40:11.849Z,13.45
2022-12-04T00:42:38.567Z,15.23
2022-12-04T00:45:05.787Z,13.48
2022-12-04T00:47:32.517Z,13.07
2022-12-04T00:49:59.246Z,13.88
2022-12-04T00:52:28.315Z,12.82
2022-12-04T00:54:55.843Z,13.18
2022-12-04T00:57:22.537Z,13.18
2022-12-04T00:59:49.346Z,14.48
2022-12-04T01:02:16.124Z,13.45
2022-12-04T01:04:42.877Z,12.90
2022-12-04T01:07:09.609Z,12.10
2022-12-04T01:09:36.402Z,12.90
2022-12-04T01:12:03.163Z,11.75
2022-12-04T01:14:29.887Z,13.63
2022-12-04T01:16:56.814Z,13.30
2022-12-04T01:19:23.552Z,13.38
2022-12-04T01:21:50.306Z,13.27
2022-12-04T01:24:17.085Z,16.23
2022-12-04T01:26:43.821Z,13.82
2022-12-04T01:29:10.569Z,13.27
2022-12-04T01:31:37.375Z,12.25
2022-12-04T01:34:04.209Z,14.15
2022-12-04T01:36:30.961Z,12.88
2022-12-04T01:38:58.002Z,13.30
2022-12-04T01:41:27.020Z,14.70
2022-12-04T01:44:12.711Z,13.90
2022-12-04T01:46:40.533Z,12.82
2022-12-04T01:49:08.756Z,13.23
2022-12-04T01:51:37.780Z,13.52
2022-12-04T01:54:07.615Z,12.93
2022-12-04T01:56:46.612Z,12.60
2022-12-04T01:59:13.512Z,14.48
2022-12-04T02:01:49.394Z,13.38
2022-12-04T02:04:16.170Z,12.80
2022-12-04T02:06:42.889Z,14.65
2022-12-04T02:09:09.598Z,14.25
2022-12-04T02:12:02.463Z,14.15
2022-12-04T02:15:07.060Z,14.73
2022-12-04T02:17:36.796Z,15.43
2022-12-04T02:20:12.319Z,15.23
2022-12-04T02:23:16.869Z,13.77
2022-12-04T02:26:20.564Z,14.05
2022-12-04T02:28:51.599Z,15.00
2022-12-04T02:31:23.221Z,13.50
2022-12-04T02:34:00.826Z,13.95
2022-12-04T02:36:32.878Z,14.35
2022-12-04T02:39:04.150Z,14.10
2022-12-04T02:41:44.350Z,15.50
2022-12-04T02:44:13.068Z,14.13
2022-12-04T02:46:43.968Z,14.32
2022-12-04T02:49:14.665Z,14.18
2022-12-04T02:51:41.404Z,14.43
2022-12-04T02:54:11.836Z,14.27
2022-12-04T02:56:41.234Z,14.63
2022-12-04T02:59:13.165Z,14.45
2022-12-04T03:01:41.841Z,15.00
2022-12-04T03:04:22.326Z,14.32
2022-12-04T03:06:57.284Z,15.13
2022-12-04T03:09:26.184Z,13.95
2022-12-04T03:11:55.702Z,15.10
2022-12-04T03:14:31.380Z,17.63
2022-12-04T03:17:03.731Z,15.38
2022-12-04T03:19:36.893Z,15.15
2022-12-04T03:22:07.136Z,15.55
2022-12-04T03:24:35.365Z,16.65
2022-12-04T03:27:13.262Z,15.85
2022-12-04T03:29:44.456Z,15.82
2022-12-04T03:32:40.436Z,17.70
2022-12-04T03:35:16.196Z,15.45
2022-12-04T03:37:56.824Z,14.57
2022-12-04T03:40:54.484Z,16.88
2022-12-04T03:43:43.899Z,15.27
2022-12-04T03:46:15.796Z,16.80
2022-12-04T03:48:56.332Z,17.23
2022-12-04T03:51:38.344Z,15.93
2022-12-04T03:54:38.290Z,18.60
2022-12-04T03:57:14.199Z,16.90
2022-12-04T03:59:52.456Z,16.85
2022-12-04T04:02:23.924Z,17.65
2022-12-04T04:04:53.300Z,17.48
2022-12-04T04:07:39.603Z,17.20
2022-12-04T04:10:12.662Z,16.88
2022-12-04T04:12:43.069Z,17.70
2022-12-04T04:15:32.877Z,17.58
2022-12-04T04:18:18.359Z,17.42
2022-12-04T04:21:15.322Z,16.75
2022-12-04T04:24:02.592Z,17.98
2022-12-04T04:26:31.690Z,16.88
2022-12-04T04:28:58.440Z,18.08
2022-12-04T04:31:32.802Z,19.23
2022-12-04T04:34:40.726Z,19.65
2022-12-04T04:37:41.210Z,18.58
2022-12-04T04:40:31.175Z,17.63
2022-12-04T04:43:20.963Z,17.73
2022-12-04T04:45:48.771Z,19.42
2022-12-04T04:48:30.299Z,18.23
2022-12-04T04:50:57.812Z,18.73
2022-12-04T04:53:29.890Z,18.92
2022-12-04T04:55:57.157Z,20.60
2022-12-04T04:58:23.849Z,17.83
2022-12-04T05:01:03.322Z,19.85
2022-12-04T05:03:30.241Z,18.20
2022-12-04T05:05:57.053Z,18.58
2022-12-04T05:08:23.907Z,19.40
2022-12-04T05:10:50.624Z,19.52
2022-12-04T05:13:17.487Z,21.17
2022-12-04T05:15:44.288Z,19.30
2022-12-04T05:18:11.154Z,20.73
2022-12-04T05:20:40.747Z,18.05
2022-12-04T05:23:07.477Z,20.85
2022-12-04T05:25:34.184Z,21.13
2022-12-04T05:28:00.887Z,18.88
2022-12-04T05:30:27.637Z,20.40
2022-12-04T05:32:54.490Z,19.63
2022-12-04T05:35:21.200Z,19.45
2022-12-04T05:37:48.026Z,19.73
2022-12-04T05:40:15.054Z,20.33
2022-12-04T05:42:41.768Z,17.27
2022-12-04T05:45:08.719Z,18.38
2022-12-04T05:47:42.405Z,20.48
2022-12-04T05:50:10.310Z,19.88
2022-12-04T05:52:37.104Z,19.70
2022-12-04T05:55:04.041Z,18.98
2022-12-04T05:57:30.917Z,18.40
2022-12-04T05:59:57.775Z,21.00
2022-12-04T06:02:24.824Z,18.35
2022-12-04T06:04:51.602Z,20.33
2022-12-04T06:07:18.598Z,20.05
2022-12-04T06:09:45.518Z,20.95
2022-12-04T06:12:12.286Z,20.63
2022-12-04T06:14:39.946Z,21.58
2022-12-04T06:17:06.853Z,20.92
2022-12-04T06:19:33.601Z,19.67
2022-12-04T06:22:00.302Z,19.85
2022-12-04T06:24:27.085Z,18.90
2022-12-04T06:29:46.475Z,20.13
2022-12-04T06:32:19.463Z,18.67
2022-12-04T06:34:51.640Z,21.00
2022-12-04T06:37:18.503Z,20.20
2022-12-04T06:39:45.273Z,19.65
2022-12-04T06:42:12.021Z,21.00
2022-12-04T06:44:38.765Z,19.75
2022-12-04T06:47:05.700Z,20.08
2022-12-04T06:49:32.448Z,19.52
2022-12-04T06:51:59.222Z,20.48
2022-12-04T06:54:26.567Z,18.70
2022-12-04T06:56:53.304Z,20.15
2022-12-04T06:59:20.017Z,18.05
2022-12-04T07:01:46.755Z,20.20
2022-12-04T07:04:13.460Z,18.05
2022-12-04T07:06:40.462Z,19.25
2022-12-04T07:09:12.066Z,18.40
2022-12-04T07:11:39.631Z,19.05
2022-12-04T07:14:06.396Z,17.10
2022-12-04T07:16:40.058Z,18.00
2022-12-04T07:19:08.669Z,17.38
2022-12-04T07:21:35.401Z,19.15
2022-12-04T07:24:02.188Z,17.02
2022-12-04T07:26:30.022Z,17.27
2022-12-04T07:28:57.729Z,17.75
2022-12-04T07:31:27.921Z,15.32
2022-12-04T07:33:55.047Z,16.00
2022-12-04T07:36:22.376Z,16.27
2022-12-04T07:38:49.105Z,16.55
2022-12-04T07:41:15.941Z,17.42
2022-12-04T07:43:42.673Z,19.85
2022-12-04T07:46:12.169Z,16.25
2022-12-04T07:48:39.034Z,16.20
2022-12-04T07:51:13.870Z,15.57
2022-12-04T07:53:43.182Z,15.15
2022-12-04T07:56:10.516Z,16.38
2022-12-04T07:58:37.300Z,15.68
2022-12-04T08:01:15.601Z,15.15
2022-12-04T08:03:47.669Z,15.88
2022-12-04T08:06:16.018Z,15.10
2022-12-04T08:08:42.748Z,14.63
2022-12-04T08:11:11.690Z,14.93
2022-12-04T08:13:38.502Z,13.68
2022-12-04T08:16:06.502Z,15.80
2022-12-04T08:18:33.293Z,15.43
2022-12-04T08:21:04.755Z,14.73
2022-12-04T08:23:31.681Z,15.57
2022-12-04T08:26:00.464Z,13.95
2022-12-04T08:28:27.306Z,15.23
2022-12-04T08:30:54.086Z,14.38
2022-12-04T08:33:20.869Z,15.35
2022-12-04T08:35:47.583Z,13.68
2022-12-04T08:38:14.368Z,14.77
2022-12-04T08:40:41.112Z,13.88
2022-12-04T08:43:07.886Z,13.85
2022-12-04T08:45:34.772Z,13.52
2022-12-04T08:48:02.194Z,12.90
2022-12-04T08:50:29.002Z,15.63
2022-12-04T08:52:56.316Z,11.65
2022-12-04T08:55:23.094Z,11.93
2022-12-04T08:57:52.421Z,11.55
2022-12-04T09:00:19.777Z,12.80
2022-12-04T09:02:49.917Z,12.85
2022-12-04T09:05:17.527Z,12.70
2022-12-04T09:07:44.328Z,12.65
2022-12-04T09:10:12.339Z,12.48
2022-12-04T09:12:39.155Z,12.15
2022-12-04T09:15:06.755Z,12.80
2022-12-04T09:17:35.371Z,11.35
2022-12-04T09:20:04.132Z,12.30
2022-12-04T09:22:51.322Z,11.52
2022-12-04T09:25:19.820Z,12.43
2022-12-04T09:27:46.667Z,11.38
2022-12-04T09:30:13.800Z,12.07
2022-12-04T09:32:40.666Z,11.68
2022-12-04T09:35:07.788Z,13.57
2022-12-04T09:37:36.624Z,13.88
2022-12-04T09:40:07.185Z,12.75
2022-12-04T09:42:46.287Z,12.35
2022-12-04T09:45:17.588Z,13.90
2022-12-04T09:47:49.495Z,13.13
2022-12-04T09:50:40.527Z,13.02
2022-12-04T09:53:11.723Z,13.10
2022-12-04T09:55:47.376Z,12.05
2022-12-04T09:58:23.777Z,13.45
2022-12-04T10:00:51.719Z,13.05
2022-12-04T10:03:22.434Z,12.57
2022-12-04T10:06:12.236Z,13.52
2022-12-04T10:08:40.130Z,14.18
2022-12-04T10:11:10.604Z,14.98
2022-12-04T10:14:03.734Z,13.43
2022-12-04T10:16:45.747Z,13.32
2022-12-04T10:19:28.496Z,14.10
2022-12-04T10:22:10.136Z,14.23
2022-12-04T10:25:01.609Z,14.65
2022-12-04T10:27:34.625Z,13.13
2022-12-04T10:30:04.319Z,16.00
2022-12-04T10:32:32.695Z,13.88
2022-12-04T10:35:22.498Z,13.60
2022-12-04T10:37:58.193Z,14.65
2022-12-04T10:40:46.543Z,13.55
2022-12-04T10:43:18.295Z,15.10
2022-12-04T10:45:45.046Z,13.93
2022-12-04T10:48:21.722Z,13.90
2022-12-04T10:50:48.581Z,14.60
2022-12-04T10:53:15.354Z,15.52
2022-12-04T10:55:42.163Z,15.65
2022-12-04T10:58:17.642Z,14.90
2022-12-04T11:00:45.861Z,15.48
2022-12-04T11:03:26.056Z,15.48
2022-12-04T11:06:01.408Z,14.80
2022-12-04T11:08:49.713Z,13.32
2022-12-04T11:11:18.305Z,14.43
2022-12-04T11:13:45.090Z,16.42
2022-12-04T11:16:35.799Z,13.90
2022-12-04T11:19:02.622Z,14.70
2022-12-04T11:21:32.505Z,13.85
2022-12-04T11:23:59.363Z,15.50
2022-12-04T11:26:33.976Z,12.18
2022-12-04T11:29:01.687Z,14.20
2022-12-04T11:31:29.616Z,12.73
2022-12-04T11:34:01.850Z,10.90
2022-12-04T11:36:35.863Z,13.02
2022-12-04T11:39:11.858Z,12.70
2022-12-04T11:41:38.926Z,12.52
2022-12-04T11:44:06.471Z,12.82
2022-12-04T11:46:34.248Z,11.73
2022-12-04T11:49:03.350Z,13.52
2022-12-04T11:51:54.480Z,12.18
2022-12-04T11:54:46.252Z,10.63
2022-12-04T11:57:18.213Z,11.13
2022-12-04T12:00:00.119Z,10.35
2022-12-04T12:03:04.564Z,11.60
2022-12-04T12:05:53.819Z,11.73
2022-12-04T12:08:35.742Z,10.55
2022-12-04T12:11:10.563Z,10.15
2022-12-04T12:13:50.322Z,10.70
2022-12-04T12:16:17.130Z,10.98
2022-12-04T12:19:08.485Z,10.52
2022-12-04T12:21:38.453Z,10.98
2022-12-04T12:24:20.549Z,10.27
2022-12-04T12:27:35.045Z,9.43
2022-12-04T12:30:22.531Z,11.83
2022-12-04T12:32:53.946Z,10.73
2022-12-04T12:35:22.600Z,9.82
2022-12-04T12:37:59.493Z,10.02
2022-12-04T12:40:36.301Z,10.23
2022-12-04T12:43:07.002Z,12.32
2022-12-04T12:46:06.064Z,10.90
2022-12-04T12:48:46.006Z,11.95
2022-12-04T12:51:30.379Z,10.65
2022-12-04T12:54:02.134Z,11.48
2022-12-04T12:56:38.376Z,11.10
2022-12-04T12:59:06.289Z,11.98
2022-12-04T13:02:00.745Z,11.63
2022-12-04T13:04:38.125Z,13.13
2022-12-04T13:07:17.218Z,13.40
2022-12-04T13:10:07.487Z,10.55
2022-12-04T13:13:03.732Z,11.52
2022-12-04T13:15:51.577Z,12.23
2022-12-04T13:18:42.565Z,12.63
2022-12-04T13:21:09.325Z,14.57
2022-12-04T13:24:14.401Z,12.95
2022-12-04T13:29:19.389Z,14.15
2022-12-04T13:32:04.660Z,13.50
2022-12-04T13:34:43.769Z,15.20
2022-12-04T13:37:52.693Z,13.77
2022-12-04T13:40:33.691Z,13.25
2022-12-04T13:43:20.707Z,12.18
2022-12-04T13:45:48.822Z,12.88
2022-12-04T13:48:29.763Z,13.30
2022-12-04T13:51:24.122Z,10.77
2022-12-04T13:54:24.386Z,12.43
2022-12-04T13:56:55.693Z,11.80
2022-12-04T13:59:28.513Z,12.05
2022-12-04T14:01:57.138Z,12.30
2022-12-04T14:05:09.290Z,11.82
2022-12-04T14:07:43.782Z,11.35
2022-12-04T14:10:16.952Z,11.07
2022-12-04T14:12:52.043Z,10.45
2022-12-04T14:15:22.603Z,10.63
2022-12-04T14:18:11.219Z,10.32
2022-12-04T14:20:38.156Z,10.48
2022-12-04T14:23:27.144Z,11.30
2022-12-04T14:26:01.394Z,11.30
2022-12-04T14:28:42.197Z,10.48
2022-12-04T14:31:09.359Z,9.38
2022-12-04T14:33:39.701Z,10.57
2022-12-04T14:36:08.675Z,12.00
2022-12-04T14:38:35.478Z,10.65
2022-12-04T14:41:02.215Z,11.45
2022-12-04T14:43:40.213Z,10.85
2022-12-04T14:46:26.529Z,10.70
2022-12-04T14:49:14.969Z,9.70
2022-12-04T14:52:03.318Z,11.30
2022-12-04T14:54:41.178Z,9.73
2022-12-04T14:57:41.377Z,9.43
2022-12-04T15:00:18.893Z,9.25
2022-12-04T15:02:46.886Z,10.18
2022-12-04T15:05:21.010Z,8.75
2022-12-04T15:10:42.857Z,8.70
2022-12-04T15:13:09.611Z,10.15
2022-12-04T15:15:36.653Z,9.23
2022-12-04T15:18:09.596Z,9.00
2022-12-04T15:20:44.933Z,8.82
2022-12-04T15:23:14.811Z,9.38
2022-12-04T15:25:50.857Z,8.70
2022-12-04T15:28:33.056Z,9.05
2022-12-04T15:31:01.385Z,8.23
2022-12-04T15:33:30.031Z,7.60
2022-12-04T15:36:16.741Z,8.70
2022-12-04T15:38:43.509Z,8.95
2022-12-04T15:41:34.616Z,8.73
2022-12-04T15:44:01.525Z,8.05
2022-12-04T15:46:35.912Z,8.90
2022-12-04T15:49:17.329Z,8.90
2022-12-04T15:51:48.424Z,10.45
2022-12-04T15:54:22.822Z,9.02
2022-12-04T15:57:26.210Z,11.18
2022-12-04T15:59:53.725Z,9.68
2022-12-04T16:02:41.478Z,9.75
2022-12-04T16:05:20.103Z,10.13
2022-12-04T16:07:51.594Z,8.57
2022-12-04T16:10:22.587Z,8.93
2022-12-04T16:12:57.315Z,9.23
2022-12-04T16:15:24.507Z,10.32
2022-12-04T16:17:51.786Z,11.30
2022-12-04T16:20:19.099Z,9.27
2022-12-04T16:22:45.915Z,10.18
2022-12-04T16:25:13.602Z,10.60
2022-12-04T16:27:40.382Z,9.88
2022-12-04T16:30:08.259Z,10.60
2022-12-04T16:32:35.095Z,10.77
2022-12-04T16:35:01.983Z,9.82
2022-12-04T16:37:32.069Z,11.10
2022-12-04T16:39:58.889Z,10.10
2022-12-04T16:42:27.668Z,13.07
2022-12-04T16:44:54.694Z,10.95
2022-12-04T16:47:22.244Z,11.85
2022-12-04T16:49:50.631Z,11.60
2022-12-04T16:52:17.707Z,10.82
2022-12-04T16:54:44.408Z,11.27
2022-12-04T16:57:11.162Z,12.73
2022-12-04T16:59:37.991Z,10.85
2022-12-04T17:02:06.689Z,10.07
2022-12-04T17:04:33.619Z,9.93
2022-12-04T17:07:00.420Z,10.85
2022-12-04T17:09:27.158Z,10.00
2022-12-04T17:11:53.863Z,10.65
2022-12-04T17:14:20.660Z,9.65
2022-12-04T17:16:47.547Z,9.27
2022-12-04T17:19:14.650Z,9.40
2022-12-04T17:21:41.724Z,10.90
2022-12-04T17:24:08.580Z,10.50
2022-12-04T17:26:35.337Z,9.45
2022-12-04T17:29:02.161Z,9.52
2022-12-04T17:31:29.066Z,9.00
2022-12-04T17:33:56.640Z,10.00
2022-12-04T17:36:25.798Z,11.02
2022-12-04T17:38:58.970Z,10.55
2022-12-04T17:41:26.958Z,11.50
2022-12-04T17:43:59.342Z,10.43
2022-12-04T17:46:26.390Z,11.15
2022-12-04T17:48:55.242Z,11.10
2022-12-04T17:51:22.991Z,10.02
2022-12-04T17:53:50.158Z,11.65
2022-12-04T17:56:20.145Z,10.73
2022-12-04T17:58:48.216Z,10.90
2022-12-04T18:01:19.678Z,9.48
2022-12-04T18:03:52.967Z,12.07
2022-12-04T18:06:23.616Z,11.47
2022-12-04T18:08:50.748Z,10.27
2022-12-04T18:11:20.688Z,10.65
2022-12-04T18:14:08.514Z,11.30
2022-12-04T18:16:41.780Z,11.02
2022-12-04T18:19:08.551Z,10.93
2022-12-04T18:21:39.116Z,11.23
2022-12-04T18:24:06.339Z,10.05
2022-12-04T18:26:39.266Z,11.65
2022-12-04T18:29:06.398Z,10.93
2022-12-04T18:31:33.321Z,10.98
2022-12-04T18:34:00.619Z,10.65
2022-12-04T18:36:29.667Z,11.38
2022-12-04T18:39:01.196Z,11.50
2022-12-04T18:41:28.322Z,12.57
2022-12-04T18:43:55.102Z,11.23
2022-12-04T18:46:22.912Z,9.75
2022-12-04T18:48:50.996Z,12.82
2022-12-04T18:51:23.716Z,12.57
2022-12-04T18:53:51.794Z,12.68
2022-12-04T18:56:18.683Z,12.90
2022-12-04T18:58:46.570Z,10.60
2022-12-04T19:01:21.081Z,12.48
2022-12-04T19:03:48.067Z,11.13
2022-12-04T19:06:14.978Z,10.65
2022-12-04T19:08:43.434Z,10.98
2022-12-04T19:11:15.076Z,12.48
2022-12-04T19:13:41.981Z,11.52
2022-12-04T19:16:12.825Z,12.13
2022-12-04T19:18:39.654Z,12.07
2022-12-04T19:21:06.799Z,11.82
2022-12-04T19:23:33.590Z,11.20
2022-12-04T19:26:00.599Z,11.45
2022-12-04T19:28:30.011Z,10.30
2022-12-04T19:30:56.994Z,10.88
2022-12-04T19:33:24.042Z,11.27
2022-12-04T19:35:58.649Z,10.93
2022-12-04T19:38:25.767Z,11.30
2022-12-04T19:41:10.385Z,11.93
2022-12-04T19:43:41.690Z,10.25
2022-12-04T19:46:09.196Z,9.90
2022-12-04T19:48:37.932Z,10.35
2022-12-04T19:51:12.377Z,11.38
2022-12-04T19:53:41.042Z,10.50
2022-12-04T19:56:10.416Z,10.65
2022-12-04T19:58:37.128Z,11.55
2022-12-04T20:01:05.667Z,10.40
2022-12-04T20:03:32.863Z,11.50
2022-12-04T20:06:07.620Z,9.98
2022-12-04T20:08:34.546Z,10.93
2022-12-04T20:11:06.731Z,9.80
2022-12-04T20:13:36.705Z,10.35
2022-12-04T20:16:07.850Z,9.05
2022-12-04T20:18:35.785Z,9.25
2022-12-04T20:21:02.628Z,10.68
2022-12-04T20:23:29.345Z,8.93
2022-12-04T20:25:56.044Z,10.75
2022-12-04T20:28:22.757Z,9.68
2022-12-04T20:30:49.912Z,11.73
2022-12-04T20:33:17.118Z,10.48
2022-12-04T20:35:43.881Z,10.45
2022-12-04T20:38:10.686Z,12.15
2022-12-04T20:40:37.385Z,9.45
2022-12-04T20:43:04.154Z,11.55
2022-12-04T20:45:31.176Z,11.20
2022-12-04T20:47:58.162Z,10.27
2022-12-04T20:50:25.237Z,10.25
2022-12-04T20:52:52.009Z,10.05
2022-12-04T20:55:19.139Z,10.10
2022-12-04T20:57:45.972Z,10.60
2022-12-04T21:00:13.340Z,9.80
2022-12-04T21:02:40.239Z,10.38
2022-12-04T21:05:07.460Z,10.68
2022-12-04T21:07:34.252Z,10.40
2022-12-04T21:10:01.069Z,11.27
2022-12-04T21:12:46.402Z,10.82
2022-12-04T21:15:31.655Z,12.88
2022-12-04T21:18:01.181Z,11.73
2022-12-04T21:20:28.316Z,10.75
2022-12-04T21:22:55.068Z,10.95
2022-12-04T21:25:21.990Z,10.30
2022-12-04T21:27:49.177Z,11.57
2022-12-04T21:30:15.994Z,10.88
2022-12-04T21:32:42.911Z,11.18
2022-12-04T21:35:09.840Z,11.02
2022-12-04T21:37:36.609Z,13.20
2022-12-04T21:40:04.076Z,13.68
2022-12-04T21:42:30.827Z,12.02
2022-12-04T21:45:01.457Z,13.32
2022-12-04T21:47:28.275Z,12.85
2022-12-04T21:49:55.406Z,12.50
2022-12-04T21:52:22.517Z,12.80
2022-12-04T21:54:50.889Z,13.75
2022-12-04T21:57:17.651Z,12.05
2022-12-04T21:59:44.542Z,12.65
2022-12-04T22:02:12.000Z,12.90
2022-12-04T22:04:41.315Z,13.40
2022-12-04T22:07:08.249Z,12.50
2022-12-04T22:09:36.040Z,12.32
2022-12-04T22:12:14.647Z,11.43
2022-12-04T22:14:49.676Z,12.80
2022-12-04T22:17:16.433Z,13.23
2022-12-04T22:19:43.270Z,12.93
2022-12-04T22:22:10.003Z,13.80
2022-12-04T22:24:36.746Z,13.38
2022-12-04T22:27:03.576Z,12.75
2022-12-04T22:32:17.073Z,11.98
2022-12-04T22:34:43.838Z,12.85
2022-12-04T22:37:10.610Z,11.93
2022-12-04T22:39:37.445Z,12.82
2022-12-04T22:42:04.404Z,12.70
2022-12-04T22:44:34.379Z,13.02
2022-12-04T22:47:01.339Z,14.15
2022-12-04T22:49:28.632Z,12.48
2022-12-04T22:51:55.339Z,13.52
2022-12-04T22:54:22.032Z,13.55
2022-12-04T22:56:48.960Z,13.55
2022-12-04T22:59:15.959Z,12.52
2022-12-04T23:01:42.838Z,13.45
2022-12-04T23:04:09.806Z,13.70
2022-12-04T23:06:36.571Z,14.52
2022-12-04T23:09:08.426Z,13.82
2022-12-04T23:11:35.429Z,14.52
2022-12-04T23:14:04.159Z,13.02
2022-12-04T23:16:32.082Z,15.40
2022-12-04T23:18:59.008Z,14.52
2022-12-04T23:21:25.872Z,14.80
2022-12-04T23:23:53.240Z,15.10
2022-12-04T23:26:27.939Z,14.30
2022-12-04T23:28:55.325Z,17.40
2022-12-04T23:31:22.168Z,15.25
2022-12-04T23:33:49.059Z,14.70
2022-12-04T23:36:15.886Z,15.25
2022-12-04T23:38:43.227Z,16.25
2022-12-04T23:41:21.250Z,15.68
2022-12-04T23:43:48.423Z,15.60
2022-12-04T23:46:16.644Z,16.33
2022-12-04T23:48:44.074Z,17.88
2022-12-04T23:51:11.627Z,16.45
2022-12-04T23:53:38.636Z,18.45
2022-12-04T23:56:22.977Z,15.27
2022-12-04T23:58:50.649Z,16.40
